METAR EVRA 201050Z 14012KT 100V160 CAVOK 28/08 Q1012 NOSIG =

ATC Feedback

If you've had an experience which you would like to give us feedback about, you're encouraged to fill out our online form, available HERE.

Controllers Online

PositionControllerOnline
No controllers currently online

Booked ATC Today

No ATC booked yet.
Be the first for today!
* Times are UTC

The time is now

UTC: 

Local: 

Latvia vACC on twitter

Official vACC of:

  

Latvia vACC on Facebook